This is the latest recevied weather packets stored in our database for station/object CQ0XPG-11. If no packets are shown the sender has not sent any weather packets the latest 10 day(s).
| Time | Temp. | Humidity | Pressure | Rain* | Wind** | Luminosity | Snow |
|---|---|---|---|---|---|---|---|
| 1777662721 | 16.67° C | 100% | 1008.1 hPa | 0 mm | - | - | - |
| 1777662428 | 16.67° C | 99% | 1008 hPa | 0 mm | - | - | - |
| 1777662109 | 16.67° C | 95% | 1008.1 hPa | 0 mm | - | - | - |
| 1777661831 | 17.22° C | 91% | 1008 hPa | 0 mm | - | - | - |
| 1777661509 | 17.22° C | 86% | 1008 hPa | 0 mm | - | - | - |
| 1777660892 | 17.78° C | 85% | 1007.9 hPa | 0 mm | - | - | - |
| 1777660622 | 17.78° C | 87% | 1007.9 hPa | 0 mm | - | - | - |
| 1777659702 | 18.33° C | 91% | 1007.6 hPa | 0 mm | - | - | - |
| 1777659078 | 18.89° C | 82% | 1007.4 hPa | 0 mm | - | - | - |
| 1777658785 | 18.89° C | 79% | 1007.3 hPa | 0 mm | - | - | - |
| 1777658466 | 19.44° C | 74% | 1007.3 hPa | 0 mm | - | - | - |
| 1777658182 | 19.44° C | 65% | 1007.3 hPa | 0 mm | - | - | - |
| 1777657859 | 20° C | 59% | 1007.4 hPa | 0 mm | - | - | - |
| 1777657600 | 21.11° C | 44% | 1007.2 hPa | 0 mm | - | - | - |
| 1777657274 | 21.11° C | 43% | 1007.3 hPa | 0 mm | - | - | - |
| 1777656966 | 21.11° C | 44% | 1007.3 hPa | 0 mm | - | - | - |
| 1777656649 | 21.11° C | 44% | 1007.3 hPa | 0 mm | - | - | - |
| 1777656353 | 21.67° C | 43% | 1007.4 hPa | 0 mm | - | - | - |
| 1777656047 | 21.67° C | 43% | 1007.4 hPa | 0 mm | - | - | - |
| 1777655760 | 21.67° C | 43% | 1007.5 hPa | 0 mm | - | - | - |
| 1777655434 | 21.11° C | 44% | 1007.5 hPa | 0 mm | - | - | - |
| 1777655148 | 21.11° C | 45% | 1007.4 hPa | 0 mm | - | - | - |
| 1777654834 | 21.11° C | 46% | 1007.5 hPa | 0 mm | - | - | - |
| 1777654540 | 21.11° C | 46% | 1007.3 hPa | 0 mm | - | - | - |
| 1777653937 | 21.11° C | 47% | 1007.4 hPa | 0 mm | - | - | - |
* Rain since midnight (hover to see other rain measurements)
** Current wind speed in m/s (hover to see current wind gust speed)